createdAt,value
2023-01-05T00:00:08.964Z,9.90
2023-01-05T00:03:02.239Z,9.90
2023-01-05T00:05:49.666Z,9.90
2023-01-05T00:08:37.973Z,9.90
2023-01-05T00:11:45.524Z,9.90
2023-01-05T00:14:50.767Z,10.00
2023-01-05T00:17:55.568Z,10.10
2023-01-05T00:21:00.358Z,10.10
2023-01-05T00:23:47.549Z,10.00
2023-01-05T00:26:36.269Z,9.90
2023-01-05T00:29:23.329Z,9.80
2023-01-05T00:32:11.667Z,9.80
2023-01-05T00:34:59.635Z,9.80
2023-01-05T00:37:48.229Z,9.80
2023-01-05T00:40:36.961Z,9.80
2023-01-05T00:43:25.697Z,9.90
2023-01-05T00:46:13.172Z,10.00
2023-01-05T00:49:00.608Z,10.00
2023-01-05T00:51:47.847Z,9.90
2023-01-05T00:54:35.332Z,10.00
2023-01-05T00:57:22.547Z,10.00
2023-01-05T01:00:17.147Z,10.00
2023-01-05T01:03:04.685Z,10.20
2023-01-05T01:05:58.031Z,10.20
2023-01-05T01:08:45.376Z,10.30
2023-01-05T01:11:32.521Z,10.40
2023-01-05T01:14:20.186Z,10.50
2023-01-05T01:17:10.975Z,10.70
2023-01-05T01:19:58.028Z,10.80
2023-01-05T01:22:45.180Z,10.90
2023-01-05T01:25:32.775Z,11.00
2023-01-05T01:28:20.151Z,11.10
2023-01-05T01:31:07.728Z,11.20
2023-01-05T01:33:56.285Z,11.30
2023-01-05T01:36:44.260Z,11.30
2023-01-05T01:39:33.922Z,11.30
2023-01-05T01:42:25.602Z,11.30
2023-01-05T01:45:20.184Z,11.30
2023-01-05T01:48:10.243Z,11.30
2023-01-05T01:51:07.745Z,11.20
2023-01-05T01:53:59.178Z,11.40
2023-01-05T01:56:51.343Z,11.40
2023-01-05T01:59:38.679Z,11.40
2023-01-05T02:02:28.325Z,11.40
2023-01-05T02:05:17.763Z,11.30
2023-01-05T02:08:12.624Z,11.20
2023-01-05T02:11:15.333Z,11.20
2023-01-05T02:14:16.539Z,11.10
2023-01-05T02:17:15.089Z,11.10
2023-01-05T02:20:26.023Z,11.10
2023-01-05T02:23:46.218Z,11.00
2023-01-05T02:27:13.393Z,10.90
2023-01-05T02:30:34.920Z,10.90
2023-01-05T02:33:33.079Z,10.80
2023-01-05T02:36:29.246Z,10.80
2023-01-05T02:39:27.890Z,10.80
2023-01-05T02:42:19.263Z,10.70
2023-01-05T02:45:08.605Z,10.70
2023-01-05T02:47:55.847Z,10.60
2023-01-05T02:50:50.007Z,10.70
2023-01-05T02:53:40.595Z,10.60
2023-01-05T02:56:33.950Z,10.60
2023-01-05T02:59:27.930Z,10.50
2023-01-05T03:02:20.913Z,10.40
2023-01-05T03:05:16.869Z,10.40
2023-01-05T03:08:10.547Z,10.30
2023-01-05T03:11:25.941Z,10.20
2023-01-05T03:14:18.057Z,10.10
2023-01-05T03:17:09.424Z,10.00
2023-01-05T03:20:02.726Z,10.00
2023-01-05T03:23:10.132Z,9.90
2023-01-05T03:26:17.205Z,9.90
2023-01-05T03:29:22.540Z,9.80
2023-01-05T03:32:39.241Z,9.80
2023-01-05T03:35:33.736Z,9.70
2023-01-05T03:38:28.146Z,9.70
2023-01-05T03:41:18.877Z,9.70
2023-01-05T03:44:06.964Z,9.60
2023-01-05T03:46:58.121Z,9.60
2023-01-05T03:49:45.829Z,9.50
2023-01-05T03:52:33.706Z,9.30
2023-01-05T03:55:21.262Z,8.90
2023-01-05T03:58:13.404Z,8.70
2023-01-05T04:01:05.897Z,8.60
2023-01-05T04:03:53.641Z,8.60
2023-01-05T04:06:41.561Z,8.60
2023-01-05T04:09:30.630Z,8.60
2023-01-05T04:12:17.928Z,8.50
2023-01-05T04:15:08.628Z,8.60
2023-01-05T04:17:56.742Z,8.60
2023-01-05T04:20:43.953Z,8.60
2023-01-05T04:23:31.204Z,8.60
2023-01-05T04:26:18.518Z,8.60
2023-01-05T04:29:11.477Z,8.50
2023-01-05T04:32:00.964Z,8.60
2023-01-05T04:34:48.611Z,8.60
2023-01-05T04:37:37.623Z,8.60
2023-01-05T04:40:24.866Z,8.70
2023-01-05T04:43:14.311Z,8.70
2023-01-05T04:46:02.609Z,8.70
2023-01-05T04:48:52.445Z,8.70
2023-01-05T04:51:41.707Z,8.70
2023-01-05T04:54:30.519Z,8.70
2023-01-05T04:57:18.803Z,8.80
2023-01-05T05:00:12.352Z,8.80
2023-01-05T05:02:59.830Z,8.80
2023-01-05T05:05:49.015Z,8.80
2023-01-05T05:08:37.379Z,8.80
2023-01-05T05:11:25.073Z,8.90
2023-01-05T05:14:12.544Z,9.00
2023-01-05T05:17:00.336Z,9.10
2023-01-05T05:19:50.094Z,9.20
2023-01-05T05:22:41.749Z,9.20
2023-01-05T05:25:30.609Z,9.20
2023-01-05T05:28:17.934Z,9.20
2023-01-05T05:31:05.343Z,9.20
2023-01-05T05:33:52.627Z,9.20
2023-01-05T05:36:39.614Z,9.10
2023-01-05T05:39:28.172Z,9.10
2023-01-05T05:42:15.674Z,9.00
2023-01-05T05:45:02.865Z,9.00
2023-01-05T05:47:50.112Z,8.90
2023-01-05T05:50:37.460Z,8.90
2023-01-05T05:53:26.334Z,8.90
2023-01-05T05:56:14.614Z,8.90
2023-01-05T05:59:02.124Z,8.90
2023-01-05T06:01:49.429Z,8.90
2023-01-05T06:04:36.771Z,8.80
2023-01-05T06:07:23.986Z,8.90
2023-01-05T06:10:11.836Z,8.80
2023-01-05T06:13:00.411Z,8.80
2023-01-05T06:15:47.768Z,8.80
2023-01-05T06:18:34.893Z,8.90
2023-01-05T06:21:22.393Z,8.90
2023-01-05T06:24:09.795Z,8.90
2023-01-05T06:26:57.334Z,8.90
2023-01-05T06:29:45.956Z,8.90
2023-01-05T06:32:33.519Z,8.90
2023-01-05T06:35:20.718Z,8.90
2023-01-05T06:38:08.373Z,8.90
2023-01-05T06:40:55.606Z,8.90
2023-01-05T06:43:43.048Z,8.80
2023-01-05T06:46:31.844Z,8.80
2023-01-05T06:49:19.134Z,8.80
2023-01-05T06:52:10.820Z,8.80
2023-01-05T06:55:01.467Z,8.90
2023-01-05T06:57:48.850Z,8.90
2023-01-05T07:00:36.467Z,8.90
2023-01-05T07:03:26.018Z,8.90
2023-01-05T07:06:15.515Z,8.90
2023-01-05T07:09:03.269Z,8.90
2023-01-05T07:11:50.323Z,8.90
2023-01-05T07:14:38.225Z,8.90
2023-01-05T07:17:25.438Z,8.90
2023-01-05T07:20:13.903Z,8.90
2023-01-05T07:23:01.097Z,8.90
2023-01-05T07:25:48.374Z,9.00
2023-01-05T07:28:36.187Z,9.00
2023-01-05T07:31:23.472Z,9.00
2023-01-05T07:34:11.387Z,9.10
2023-01-05T07:37:00.134Z,9.10
2023-01-05T07:39:47.316Z,9.20
2023-01-05T07:42:35.099Z,9.20
2023-01-05T07:45:23.584Z,9.20
2023-01-05T07:48:11.182Z,9.20
2023-01-05T07:51:02.593Z,9.30
2023-01-05T07:53:51.466Z,9.40
2023-01-05T07:56:39.082Z,9.50
2023-01-05T07:59:26.284Z,9.50
2023-01-05T08:02:13.579Z,9.50
2023-01-05T08:05:00.914Z,9.60
2023-01-05T08:07:48.151Z,9.60
2023-01-05T08:10:38.743Z,9.60
2023-01-05T08:13:43.350Z,9.60
2023-01-05T08:16:32.232Z,9.70
2023-01-05T08:19:20.421Z,9.70
2023-01-05T08:22:07.972Z,9.80
2023-01-05T08:24:55.449Z,9.80
2023-01-05T08:27:44.355Z,9.80
2023-01-05T08:30:32.437Z,9.80
2023-01-05T08:33:19.608Z,9.90
2023-01-05T08:36:09.825Z,9.90
2023-01-05T08:38:56.981Z,9.90
2023-01-05T08:41:44.451Z,9.90
2023-01-05T08:44:33.326Z,10.00
2023-01-05T08:47:24.945Z,10.00
2023-01-05T08:50:15.562Z,10.00
2023-01-05T08:53:02.722Z,10.10
2023-01-05T08:55:49.877Z,10.20
2023-01-05T08:58:37.580Z,10.20
2023-01-05T09:01:26.639Z,10.20
2023-01-05T09:04:13.719Z,10.10
2023-01-05T09:07:00.907Z,10.10
2023-01-05T09:09:48.417Z,10.10
2023-01-05T09:12:36.604Z,10.10
2023-01-05T09:15:24.075Z,10.10
2023-01-05T09:18:12.645Z,10.20
2023-01-05T09:20:59.908Z,10.20
2023-01-05T09:23:47.249Z,10.20
2023-01-05T09:26:34.762Z,10.10
2023-01-05T09:29:22.388Z,9.90
2023-01-05T09:32:11.459Z,9.80
2023-01-05T09:34:59.999Z,9.70
2023-01-05T09:37:47.729Z,9.60
2023-01-05T09:40:41.054Z,9.50
2023-01-05T09:43:31.225Z,9.50
2023-01-05T09:46:21.921Z,9.50
2023-01-05T09:49:14.162Z,9.50
2023-01-05T09:52:09.197Z,9.50
2023-01-05T09:54:57.311Z,9.50
2023-01-05T09:57:52.951Z,9.50
2023-01-05T10:00:44.357Z,9.50
2023-01-05T10:04:02.392Z,9.50
2023-01-05T10:06:47.798Z,9.50
2023-01-05T10:09:39.343Z,9.50
2023-01-05T10:12:50.835Z,9.50
2023-01-05T10:15:41.914Z,9.60
2023-01-05T10:18:31.991Z,9.50
2023-01-05T10:21:27.662Z,9.50
2023-01-05T10:24:26.364Z,9.50
2023-01-05T10:27:25.613Z,9.40
2023-01-05T10:30:22.966Z,9.30
2023-01-05T10:33:40.222Z,9.20
2023-01-05T10:40:10.948Z,8.60
2023-01-05T10:43:25.828Z,8.20
2023-01-05T10:46:35.423Z,8.00
2023-01-05T10:49:26.724Z,7.90
2023-01-05T10:52:16.230Z,7.80
2023-01-05T10:55:12.801Z,7.80
2023-01-05T10:58:00.319Z,7.90
2023-01-05T11:00:49.336Z,7.90
2023-01-05T11:04:23.999Z,7.90
2023-01-05T11:06:48.538Z,7.90
2023-01-05T11:09:41.081Z,7.90
2023-01-05T11:12:28.776Z,7.90
2023-01-05T11:15:19.515Z,7.90
2023-01-05T11:18:25.375Z,7.90
2023-01-05T11:21:15.685Z,7.80
2023-01-05T11:24:04.687Z,7.80
2023-01-05T11:26:54.214Z,7.80
2023-01-05T11:29:41.296Z,7.80
2023-01-05T11:32:28.564Z,7.90
2023-01-05T11:35:24.317Z,7.90
2023-01-05T11:38:23.305Z,7.90
2023-01-05T11:41:14.182Z,7.80
2023-01-05T11:44:03.257Z,7.80
2023-01-05T11:46:51.457Z,7.90
2023-01-05T11:49:38.841Z,8.00
2023-01-05T11:52:33.644Z,8.10
2023-01-05T11:55:31.567Z,8.10
2023-01-05T11:58:25.542Z,8.30
2023-01-05T12:01:45.668Z,8.30
2023-01-05T12:05:04.856Z,8.40
2023-01-05T12:07:59.441Z,8.60
2023-01-05T12:11:07.324Z,8.70
2023-01-05T12:14:17.307Z,8.80
2023-01-05T12:17:13.741Z,8.90
2023-01-05T12:20:12.474Z,8.90
2023-01-05T12:23:27.683Z,9.00
2023-01-05T12:26:22.507Z,9.00
2023-01-05T12:36:31.303Z,8.90
2023-01-05T12:39:41.435Z,9.10
2023-01-05T12:42:57.984Z,9.20
2023-01-05T12:46:14.034Z,9.30
2023-01-05T12:49:04.340Z,9.30
2023-01-05T12:52:01.023Z,9.50
2023-01-05T12:54:59.351Z,9.60
2023-01-05T12:57:49.756Z,9.60
2023-01-05T13:00:42.427Z,9.90
2023-01-05T13:03:34.941Z,10.10
2023-01-05T13:06:25.718Z,10.30
2023-01-05T13:09:18.112Z,10.20
2023-01-05T13:12:10.020Z,10.10
2023-01-05T13:15:07.620Z,9.90
2023-01-05T13:17:57.792Z,9.80
2023-01-05T13:20:50.685Z,9.80
2023-01-05T13:23:42.985Z,9.70
2023-01-05T13:26:37.498Z,9.70
2023-01-05T13:29:31.803Z,9.80
2023-01-05T13:32:41.821Z,9.70
2023-01-05T13:36:04.148Z,9.60
2023-01-05T13:39:33.345Z,9.50
2023-01-05T13:42:33.337Z,9.40
2023-01-05T13:46:01.409Z,9.40
2023-01-05T13:49:12.150Z,9.30
2023-01-05T13:52:01.238Z,9.20
2023-01-05T13:55:01.544Z,9.10
2023-01-05T13:57:50.729Z,9.00
2023-01-05T14:00:43.057Z,9.00
2023-01-05T14:03:36.311Z,8.90
2023-01-05T14:06:26.727Z,8.80
2023-01-05T14:09:19.169Z,8.70
2023-01-05T14:12:27.287Z,8.60
2023-01-05T14:15:39.794Z,8.60
2023-01-05T14:19:12.215Z,8.50
2023-01-05T14:22:32.705Z,8.50
2023-01-05T14:25:49.727Z,8.50
2023-01-05T14:28:49.066Z,8.50
2023-01-05T14:31:39.011Z,8.60
2023-01-05T14:34:29.677Z,8.60
2023-01-05T14:37:23.274Z,8.60
2023-01-05T14:40:26.041Z,8.60
2023-01-05T14:43:27.307Z,8.60
2023-01-05T14:46:16.244Z,8.60
2023-01-05T14:49:08.599Z,8.70
2023-01-05T14:51:59.733Z,8.70
2023-01-05T14:55:21.860Z,8.70
2023-01-05T14:58:16.474Z,8.60
2023-01-05T15:01:14.981Z,8.50
2023-01-05T15:04:07.965Z,8.50
2023-01-05T15:07:18.534Z,8.60
2023-01-05T15:10:23.474Z,8.60
2023-01-05T15:13:35.291Z,8.60
2023-01-05T15:16:31.264Z,8.50
2023-01-05T15:19:36.596Z,8.50
2023-01-05T15:22:42.322Z,8.60
2023-01-05T15:25:53.157Z,8.60
2023-01-05T15:29:11.260Z,8.60
2023-01-05T15:32:03.187Z,8.60
2023-01-05T15:34:55.715Z,8.60
2023-01-05T15:37:47.217Z,8.50
2023-01-05T15:40:35.025Z,8.60
2023-01-05T15:43:22.463Z,8.60
2023-01-05T15:46:11.115Z,8.60
2023-01-05T15:48:59.677Z,8.50
2023-01-05T15:51:52.231Z,8.50
2023-01-05T15:54:41.345Z,8.60
2023-01-05T15:57:28.705Z,8.60
2023-01-05T16:00:18.596Z,8.60
2023-01-05T16:03:21.284Z,8.60
2023-01-05T16:06:12.411Z,8.50
2023-01-05T16:09:08.423Z,8.50
2023-01-05T16:12:01.289Z,8.50
2023-01-05T16:14:48.778Z,8.50
2023-01-05T16:17:38.312Z,8.50
2023-01-05T16:20:26.893Z,8.50
2023-01-05T16:23:18.080Z,8.50
2023-01-05T16:26:05.827Z,8.50
2023-01-05T16:28:54.722Z,8.50
2023-01-05T16:31:53.996Z,8.50
2023-01-05T16:34:41.193Z,8.50
2023-01-05T16:37:29.405Z,8.50
2023-01-05T16:40:21.315Z,8.40
2023-01-05T16:43:19.784Z,8.50
2023-01-05T16:46:29.089Z,8.50
2023-01-05T16:49:38.952Z,8.50
2023-01-05T16:52:39.055Z,8.50
2023-01-05T16:55:35.590Z,8.50
2023-01-05T16:58:38.333Z,8.50
2023-01-05T17:01:35.813Z,8.50
2023-01-05T17:04:23.428Z,8.50
2023-01-05T17:07:11.217Z,8.40
2023-01-05T17:09:58.885Z,8.40
2023-01-05T17:12:48.725Z,8.40
2023-01-05T17:15:37.685Z,8.40
2023-01-05T17:18:27.460Z,8.40
2023-01-05T17:21:18.749Z,8.40
2023-01-05T17:24:06.675Z,8.40
2023-01-05T17:26:54.181Z,8.40
2023-01-05T17:29:41.521Z,8.30
2023-01-05T17:32:29.037Z,8.30
2023-01-05T17:35:19.929Z,8.30
2023-01-05T17:38:07.561Z,8.20
2023-01-05T17:40:54.833Z,8.10
2023-01-05T17:46:37.586Z,7.90
2023-01-05T17:49:24.683Z,7.70
2023-01-05T17:52:14.032Z,7.60
2023-01-05T17:55:02.234Z,7.50
2023-01-05T17:57:50.328Z,7.40
2023-01-05T18:00:41.772Z,7.40
2023-01-05T18:03:28.897Z,7.30
2023-01-05T18:06:16.403Z,7.30
2023-01-05T18:09:05.462Z,7.30
2023-01-05T18:11:52.988Z,7.20
2023-01-05T18:14:40.423Z,7.20
2023-01-05T18:17:27.982Z,7.10
2023-01-05T18:20:17.701Z,7.10
2023-01-05T18:23:07.734Z,7.10
2023-01-05T18:25:56.590Z,7.00
2023-01-05T18:28:43.694Z,7.00
2023-01-05T18:31:31.153Z,6.90
2023-01-05T18:34:18.154Z,7.00
2023-01-05T18:37:06.709Z,6.90
2023-01-05T18:39:58.173Z,6.90
2023-01-05T18:42:46.795Z,6.90
2023-01-05T18:45:41.261Z,6.80
2023-01-05T18:48:28.713Z,6.80
2023-01-05T18:51:16.158Z,6.80
2023-01-05T18:54:03.385Z,6.80
2023-01-05T18:56:50.680Z,6.80
2023-01-05T18:59:39.452Z,6.80
2023-01-05T19:02:27.591Z,6.80
2023-01-05T19:05:14.731Z,6.70
2023-01-05T19:08:02.099Z,6.70
2023-01-05T19:10:49.520Z,6.60
2023-01-05T19:13:36.916Z,6.60
2023-01-05T19:16:27.655Z,6.50
2023-01-05T19:19:15.785Z,6.50
2023-01-05T19:22:04.239Z,6.40
2023-01-05T19:24:51.351Z,6.40
2023-01-05T19:27:38.749Z,6.40
2023-01-05T19:30:26.211Z,6.40
2023-01-05T19:33:15.008Z,6.40
2023-01-05T19:36:04.806Z,6.40
2023-01-05T19:38:52.295Z,6.40
2023-01-05T19:41:41.057Z,6.40
2023-01-05T19:44:28.827Z,6.40
2023-01-05T19:47:16.378Z,6.40
2023-01-05T19:50:05.388Z,6.40
2023-01-05T19:52:53.675Z,6.30
2023-01-05T19:55:40.882Z,6.30
2023-01-05T19:58:28.471Z,6.30
2023-01-05T20:01:17.219Z,6.30
2023-01-05T20:04:04.743Z,6.30
2023-01-05T20:06:53.501Z,6.30
2023-01-05T20:09:41.076Z,6.20
2023-01-05T20:12:28.189Z,6.30
2023-01-05T20:15:15.600Z,6.20
2023-01-05T20:18:03.191Z,6.20
2023-01-05T20:20:50.858Z,6.20
2023-01-05T20:23:41.262Z,6.20
2023-01-05T20:26:30.594Z,6.10
2023-01-05T20:29:19.951Z,6.10
2023-01-05T20:32:09.562Z,6.10
2023-01-05T20:34:59.695Z,6.10
2023-01-05T20:37:47.240Z,6.00
2023-01-05T20:40:35.949Z,6.00
2023-01-05T20:43:23.484Z,6.00
2023-01-05T20:46:11.437Z,6.00
2023-01-05T20:48:59.107Z,6.00
2023-01-05T20:51:47.000Z,6.00
2023-01-05T20:54:34.383Z,6.00
2023-01-05T20:57:23.357Z,6.00
2023-01-05T21:00:13.978Z,6.00
2023-01-05T21:03:01.238Z,6.00
2023-01-05T21:05:48.650Z,5.90
2023-01-05T21:08:36.516Z,5.90
2023-01-05T21:11:26.053Z,5.90
2023-01-05T21:14:15.474Z,5.90
2023-01-05T21:17:02.841Z,5.90
2023-01-05T21:19:50.138Z,5.80
2023-01-05T21:22:37.697Z,5.80
2023-01-05T21:25:25.705Z,5.80
2023-01-05T21:28:13.504Z,5.80
2023-01-05T21:31:05.807Z,5.70
2023-01-05T21:33:54.318Z,5.80
2023-01-05T21:36:45.411Z,5.70
2023-01-05T21:39:32.837Z,5.70
2023-01-05T21:42:37.433Z,5.70
2023-01-05T21:45:25.542Z,5.60
2023-01-05T21:48:14.066Z,5.50
2023-01-05T21:51:19.265Z,5.40
2023-01-05T21:54:24.305Z,5.30
2023-01-05T21:57:12.316Z,5.20
2023-01-05T21:59:59.646Z,5.10
2023-01-05T22:02:47.177Z,5.00
2023-01-05T22:05:35.951Z,5.00
2023-01-05T22:08:24.939Z,5.00
2023-01-05T22:11:12.700Z,4.90
2023-01-05T22:13:59.946Z,4.80
2023-01-05T22:16:47.364Z,4.70
2023-01-05T22:19:35.041Z,4.60
2023-01-05T22:22:24.062Z,4.50
2023-01-05T22:25:11.559Z,4.40
2023-01-05T22:28:02.144Z,4.40
2023-01-05T22:30:49.787Z,4.40
2023-01-05T22:33:39.281Z,4.40
2023-01-05T22:36:28.421Z,4.40
2023-01-05T22:39:17.744Z,4.50
2023-01-05T22:42:05.008Z,4.50
2023-01-05T22:44:52.528Z,4.60
2023-01-05T22:47:39.840Z,4.70
2023-01-05T22:50:27.019Z,4.70
2023-01-05T22:53:14.636Z,4.70
2023-01-05T22:56:03.528Z,4.80
2023-01-05T22:58:50.651Z,4.80
2023-01-05T23:01:39.672Z,4.80
2023-01-05T23:04:27.247Z,4.80
2023-01-05T23:07:17.295Z,4.80
2023-01-05T23:10:04.724Z,4.80
2023-01-05T23:12:53.434Z,4.80
2023-01-05T23:15:40.745Z,4.80
2023-01-05T23:18:28.463Z,4.80
2023-01-05T23:21:17.118Z,4.80
2023-01-05T23:24:04.672Z,4.90
2023-01-05T23:26:52.276Z,4.90
2023-01-05T23:29:41.230Z,4.90
2023-01-05T23:32:28.696Z,4.90
2023-01-05T23:35:15.994Z,5.00
2023-01-05T23:38:03.571Z,5.00
2023-01-05T23:40:52.798Z,4.90
2023-01-05T23:43:41.754Z,4.90
2023-01-05T23:46:30.719Z,4.90
2023-01-05T23:49:17.919Z,4.90
2023-01-05T23:52:05.643Z,4.90
2023-01-05T23:54:53.356Z,5.00
2023-01-05T23:57:41.129Z,5.00
